createdAt,value
2023-11-08T00:01:29.548Z,91.15
2023-11-08T00:04:15.317Z,91.14
2023-11-08T00:07:01.051Z,91.00
2023-11-08T00:09:46.328Z,91.05
2023-11-08T00:12:31.842Z,91.13
2023-11-08T00:15:17.299Z,90.99
2023-11-08T00:18:02.681Z,91.10
2023-11-08T00:20:47.989Z,91.05
2023-11-08T00:23:33.260Z,91.04
2023-11-08T00:26:18.877Z,91.08
2023-11-08T00:29:04.001Z,91.10
2023-11-08T00:31:49.344Z,91.00
2023-11-08T00:34:34.884Z,91.09
2023-11-08T00:37:20.412Z,91.26
2023-11-08T00:40:07.040Z,91.16
2023-11-08T00:42:52.435Z,91.08
2023-11-08T00:45:37.866Z,90.85
2023-11-08T00:48:24.967Z,90.81
2023-11-08T00:51:28.775Z,91.23
2023-11-08T00:54:13.912Z,90.65
2023-11-08T00:56:59.331Z,90.80
2023-11-08T00:59:44.659Z,90.45
2023-11-08T01:02:30.181Z,90.47
2023-11-08T01:05:16.436Z,90.36
2023-11-08T01:08:01.978Z,90.81
2023-11-08T01:10:48.080Z,90.65
2023-11-08T01:13:37.710Z,90.61
2023-11-08T01:16:22.896Z,90.58
2023-11-08T01:19:08.692Z,90.14
2023-11-08T01:21:54.236Z,90.45
2023-11-08T01:24:42.343Z,90.41
2023-11-08T01:27:27.757Z,90.19
2023-11-08T01:30:13.551Z,89.95
2023-11-08T01:32:59.331Z,89.87
2023-11-08T01:35:45.381Z,90.65
2023-11-08T01:38:30.500Z,90.54
2023-11-08T01:41:15.898Z,90.73
2023-11-08T01:44:01.483Z,90.69
2023-11-08T01:46:55.280Z,90.71
2023-11-08T01:49:42.138Z,90.45
2023-11-08T01:52:31.296Z,90.61
2023-11-08T01:55:16.318Z,90.58
2023-11-08T01:58:01.794Z,90.62
2023-11-08T02:00:50.512Z,90.65
2023-11-08T02:03:38.334Z,90.36
2023-11-08T02:06:23.873Z,90.74
2023-11-08T02:09:10.305Z,91.18
2023-11-08T02:11:59.198Z,91.11
2023-11-08T02:15:04.908Z,91.02
2023-11-08T02:17:50.434Z,90.72
2023-11-08T02:20:35.755Z,90.92
2023-11-08T02:23:21.114Z,90.48
2023-11-08T02:26:06.564Z,90.44
2023-11-08T02:28:52.004Z,90.20
2023-11-08T02:31:37.570Z,90.04
2023-11-08T02:34:23.064Z,89.69
2023-11-08T02:37:08.960Z,89.74
2023-11-08T02:39:54.409Z,89.48
2023-11-08T02:42:44.054Z,89.43
2023-11-08T02:45:29.144Z,89.49
2023-11-08T02:48:14.931Z,89.41
2023-11-08T02:51:00.847Z,89.61
2023-11-08T02:53:45.879Z,89.45
2023-11-08T02:56:38.120Z,89.22
2023-11-08T02:59:23.294Z,89.30
2023-11-08T03:02:09.109Z,89.03
2023-11-08T03:04:54.626Z,88.70
2023-11-08T03:07:40.224Z,89.23
2023-11-08T03:10:25.561Z,89.55
2023-11-08T03:13:11.358Z,89.42
2023-11-08T03:15:58.166Z,89.18
2023-11-08T03:18:43.311Z,89.27
2023-11-08T03:21:28.747Z,89.38
2023-11-08T03:24:14.077Z,89.22
2023-11-08T03:26:59.671Z,88.72
2023-11-08T03:29:44.805Z,88.84
2023-11-08T03:32:31.453Z,88.92
2023-11-08T03:35:16.961Z,89.09
2023-11-08T03:38:02.380Z,89.29
2023-11-08T03:40:48.095Z,89.30
2023-11-08T03:43:33.506Z,89.11
2023-11-08T03:46:18.897Z,89.15
2023-11-08T03:49:04.642Z,89.67
2023-11-08T03:51:49.968Z,90.02
2023-11-08T03:54:35.601Z,89.88
2023-11-08T03:57:23.541Z,89.67
2023-11-08T04:00:09.473Z,89.96
2023-11-08T04:02:54.940Z,89.72
2023-11-08T04:05:40.132Z,89.34
2023-11-08T04:08:25.807Z,89.15
2023-11-08T04:11:11.153Z,88.78
2023-11-08T04:13:56.702Z,89.39
2023-11-08T04:16:42.211Z,88.73
2023-11-08T04:19:28.097Z,89.29
2023-11-08T04:22:15.376Z,89.03
2023-11-08T04:25:01.249Z,88.86
2023-11-08T04:27:46.549Z,88.73
2023-11-08T04:30:32.148Z,88.98
2023-11-08T04:33:17.380Z,89.40
2023-11-08T04:36:03.739Z,89.56
2023-11-08T04:38:49.232Z,89.56
2023-11-08T04:41:34.448Z,89.62
2023-11-08T04:44:20.867Z,89.19
2023-11-08T04:47:06.638Z,88.93
2023-11-08T04:49:51.888Z,89.18
2023-11-08T04:52:37.344Z,89.23
2023-11-08T04:55:22.724Z,89.17
2023-11-08T04:58:07.997Z,88.83
2023-11-08T05:00:53.486Z,88.57
2023-11-08T05:03:38.735Z,88.47
2023-11-08T05:06:24.107Z,88.52
2023-11-08T05:09:09.451Z,87.92
2023-11-08T05:11:54.877Z,88.10
2023-11-08T05:14:40.204Z,87.91
2023-11-08T05:17:25.690Z,87.80
2023-11-08T05:20:12.389Z,87.63
2023-11-08T05:22:57.804Z,87.50
2023-11-08T05:25:43.424Z,87.41
2023-11-08T05:28:28.703Z,87.38
2023-11-08T05:31:15.249Z,87.18
2023-11-08T05:34:02.534Z,87.10
2023-11-08T05:36:47.923Z,87.46
2023-11-08T05:39:33.320Z,87.44
2023-11-08T05:42:23.839Z,87.71
2023-11-08T05:45:09.745Z,87.95
2023-11-08T05:47:54.778Z,87.62
2023-11-08T05:50:44.323Z,87.70
2023-11-08T05:53:29.322Z,87.93
2023-11-08T05:56:14.679Z,87.79
2023-11-08T05:58:59.931Z,87.71
2023-11-08T06:01:45.227Z,87.35
2023-11-08T06:04:31.299Z,87.70
2023-11-08T06:07:16.756Z,87.42
2023-11-08T06:10:03.040Z,87.39
2023-11-08T06:12:48.572Z,87.51
2023-11-08T06:15:33.960Z,87.66
2023-11-08T06:18:25.984Z,87.37
2023-11-08T06:21:15.254Z,88.46
2023-11-08T06:24:03.272Z,89.44
2023-11-08T06:26:48.963Z,89.51
2023-11-08T06:29:38.330Z,89.89
2023-11-08T06:32:23.795Z,89.97
2023-11-08T06:35:09.412Z,90.02
2023-11-08T06:37:55.004Z,89.98
2023-11-08T06:40:41.188Z,90.11
2023-11-08T06:43:26.516Z,89.98
2023-11-08T06:46:11.991Z,90.72
2023-11-08T06:48:58.970Z,90.87
2023-11-08T06:51:45.376Z,90.99
2023-11-08T06:54:32.126Z,90.48
2023-11-08T06:57:17.232Z,91.34
2023-11-08T07:00:02.497Z,91.11
2023-11-08T07:02:47.861Z,90.66
2023-11-08T07:05:38.277Z,90.15
2023-11-08T07:08:24.972Z,89.85
2023-11-08T07:11:10.293Z,88.96
2023-11-08T07:13:56.226Z,88.88
2023-11-08T07:16:43.442Z,89.19
2023-11-08T07:19:29.274Z,88.79
2023-11-08T07:22:15.400Z,89.24
2023-11-08T07:25:00.929Z,89.14
2023-11-08T07:27:46.075Z,88.58
2023-11-08T07:30:31.546Z,89.07
2023-11-08T07:33:19.057Z,89.32
2023-11-08T07:36:06.533Z,89.04
2023-11-08T07:38:52.256Z,89.48
2023-11-08T07:41:37.562Z,89.00
2023-11-08T07:44:22.939Z,88.81
2023-11-08T07:47:08.360Z,89.15
2023-11-08T07:49:53.650Z,89.73
2023-11-08T07:52:39.082Z,90.17
2023-11-08T07:55:24.434Z,89.67
2023-11-08T07:58:10.104Z,90.15
2023-11-08T08:00:55.492Z,89.85
2023-11-08T08:03:41.592Z,89.74
2023-11-08T08:06:27.304Z,89.67
2023-11-08T08:09:16.520Z,90.16
2023-11-08T08:12:01.916Z,91.03
2023-11-08T08:14:47.228Z,91.14
2023-11-08T08:17:36.096Z,91.92
2023-11-08T08:20:21.410Z,92.42
2023-11-08T08:23:11.198Z,92.18
2023-11-08T08:25:57.786Z,92.51
2023-11-08T08:28:43.894Z,92.60
2023-11-08T08:31:30.160Z,92.64
2023-11-08T08:34:23.143Z,92.66
2023-11-08T08:37:12.828Z,93.01
2023-11-08T08:39:58.166Z,93.79
2023-11-08T08:42:44.637Z,93.91
2023-11-08T08:45:31.162Z,94.71
2023-11-08T08:48:16.548Z,95.01
2023-11-08T08:51:02.685Z,95.02
2023-11-08T08:53:48.036Z,94.57
2023-11-08T08:56:34.729Z,95.12
2023-11-08T08:59:20.096Z,94.88
2023-11-08T09:02:05.840Z,94.63
2023-11-08T09:04:52.800Z,94.94
2023-11-08T09:07:37.851Z,95.29
2023-11-08T09:10:23.362Z,94.89
2023-11-08T09:13:08.645Z,94.83
2023-11-08T09:15:54.687Z,95.20
2023-11-08T09:18:40.859Z,94.94
2023-11-08T09:21:27.218Z,95.23
2023-11-08T09:24:12.640Z,95.22
2023-11-08T09:26:58.064Z,95.69
2023-11-08T09:29:43.524Z,95.78
2023-11-08T09:32:29.064Z,96.30
2023-11-08T09:35:14.601Z,95.83
2023-11-08T09:38:00.308Z,95.39
2023-11-08T09:40:45.400Z,95.99
2023-11-08T09:43:32.291Z,95.84
2023-11-08T09:46:17.920Z,95.08
2023-11-08T09:49:03.220Z,95.08
2023-11-08T09:51:48.347Z,95.22
2023-11-08T09:54:33.689Z,95.47
2023-11-08T09:57:21.213Z,95.09
2023-11-08T10:00:08.214Z,94.81
2023-11-08T10:02:55.231Z,93.98
2023-11-08T10:05:41.003Z,93.16
2023-11-08T10:08:26.116Z,92.99
2023-11-08T10:11:17.036Z,92.60
2023-11-08T10:14:04.422Z,92.60
2023-11-08T10:16:55.389Z,92.30
2023-11-08T10:19:49.163Z,91.70
2023-11-08T10:22:38.699Z,91.92
2023-11-08T10:25:27.283Z,91.17
2023-11-08T10:28:12.309Z,91.56
2023-11-08T10:30:57.758Z,91.58
2023-11-08T10:33:57.624Z,91.25
2023-11-08T10:36:43.149Z,90.70
2023-11-08T10:39:28.968Z,90.44
2023-11-08T10:42:14.683Z,90.86
2023-11-08T10:45:10.124Z,90.53
2023-11-08T10:47:56.840Z,90.38
2023-11-08T10:50:44.762Z,90.81
2023-11-08T10:53:29.990Z,90.82
2023-11-08T10:56:18.930Z,90.98
2023-11-08T10:59:05.477Z,90.72
2023-11-08T11:01:50.686Z,90.47
2023-11-08T11:04:36.347Z,90.59
2023-11-08T11:07:25.915Z,91.15
2023-11-08T11:10:13.245Z,89.35
2023-11-08T11:13:04.939Z,89.47
2023-11-08T11:15:59.548Z,88.56
2023-11-08T11:18:47.437Z,88.14
2023-11-08T11:21:45.017Z,88.08
2023-11-08T11:24:39.124Z,87.30
2023-11-08T11:27:33.682Z,87.33
2023-11-08T11:30:19.012Z,86.85
2023-11-08T11:33:06.352Z,85.94
2023-11-08T11:35:51.870Z,84.92
2023-11-08T11:38:37.364Z,84.97
2023-11-08T11:41:26.294Z,85.04
2023-11-08T11:44:13.786Z,85.13
2023-11-08T11:46:58.912Z,84.45
2023-11-08T11:49:49.574Z,85.11
2023-11-08T11:52:37.039Z,84.52
2023-11-08T11:55:22.822Z,83.86
2023-11-08T11:58:12.174Z,84.58
2023-11-08T12:00:57.632Z,84.66
2023-11-08T12:03:44.375Z,84.55
2023-11-08T12:06:30.223Z,85.70
2023-11-08T12:09:15.382Z,86.14
2023-11-08T12:12:00.889Z,85.54
2023-11-08T12:14:46.288Z,85.32
2023-11-08T12:17:31.777Z,85.25
2023-11-08T12:20:21.230Z,84.99
2023-11-08T12:23:08.050Z,84.99
2023-11-08T12:25:53.270Z,84.87
2023-11-08T12:28:39.533Z,84.38
2023-11-08T12:31:28.944Z,85.29
2023-11-08T12:34:16.164Z,84.57
2023-11-08T12:37:01.612Z,84.20
2023-11-08T12:39:47.052Z,82.60
2023-11-08T12:42:32.516Z,82.88
2023-11-08T12:46:34.174Z,82.06
2023-11-08T12:48:40.021Z,81.24
2023-11-08T12:51:33.575Z,81.49
2023-11-08T12:54:20.197Z,81.38
2023-11-08T12:57:06.546Z,80.90
2023-11-08T12:59:52.223Z,80.29
2023-11-08T13:02:37.392Z,80.24
2023-11-08T13:05:22.968Z,79.82
2023-11-08T13:08:13.614Z,79.70
2023-11-08T13:11:02.044Z,79.51
2023-11-08T13:13:47.224Z,78.82
2023-11-08T13:16:33.865Z,79.41
2023-11-08T13:19:19.337Z,78.67
2023-11-08T13:22:04.766Z,78.99
2023-11-08T13:24:52.037Z,78.55
2023-11-08T13:27:37.123Z,78.89
2023-11-08T13:30:24.182Z,79.02
2023-11-08T13:33:09.709Z,79.10
2023-11-08T13:35:55.010Z,79.13
2023-11-08T13:38:40.671Z,80.08
2023-11-08T13:41:26.358Z,80.76
2023-11-08T13:44:11.562Z,81.06
2023-11-08T13:46:56.934Z,81.45
2023-11-08T13:49:42.488Z,81.78
2023-11-08T13:52:27.930Z,82.25
2023-11-08T13:55:13.529Z,82.54
2023-11-08T13:57:58.743Z,82.93
2023-11-08T14:00:45.522Z,83.54
2023-11-08T14:03:30.893Z,84.25
2023-11-08T14:06:16.429Z,84.72
2023-11-08T14:09:01.815Z,84.62
2023-11-08T14:11:48.110Z,85.95
2023-11-08T14:14:34.123Z,86.65
2023-11-08T14:17:22.805Z,86.28
2023-11-08T14:20:09.040Z,85.82
2023-11-08T14:22:54.792Z,85.77
2023-11-08T14:25:39.898Z,85.43
2023-11-08T14:28:25.439Z,85.56
2023-11-08T14:31:11.450Z,85.73
2023-11-08T14:33:57.092Z,85.67
2023-11-08T14:36:56.331Z,85.25
2023-11-08T14:39:43.019Z,85.50
2023-11-08T14:42:28.444Z,85.13
2023-11-08T14:45:13.827Z,85.04
2023-11-08T14:47:59.552Z,84.86
2023-11-08T14:50:44.864Z,85.06
2023-11-08T14:53:30.372Z,84.49
2023-11-08T14:56:16.290Z,84.36
2023-11-08T14:59:01.732Z,83.82
2023-11-08T15:01:46.794Z,83.49
2023-11-08T15:04:32.191Z,82.93
2023-11-08T15:09:40.737Z,82.39
2023-11-08T15:10:23.293Z,81.78
2023-11-08T15:13:08.593Z,82.00
2023-11-08T15:15:53.924Z,81.99
2023-11-08T15:18:39.325Z,81.70
2023-11-08T15:21:26.615Z,81.61
2023-11-08T15:24:12.650Z,81.62
2023-11-08T15:26:58.158Z,82.20
2023-11-08T15:29:43.329Z,81.84
2023-11-08T15:32:29.171Z,81.77
2023-11-08T15:35:14.241Z,81.88
2023-11-08T15:37:59.849Z,81.99
2023-11-08T15:40:46.004Z,81.88
2023-11-08T15:43:31.140Z,81.80
2023-11-08T15:46:16.575Z,81.48
2023-11-08T15:49:01.697Z,80.96
2023-11-08T15:51:47.157Z,80.94
2023-11-08T15:54:32.211Z,80.38
2023-11-08T15:57:17.590Z,81.00
2023-11-08T16:00:02.875Z,80.53
2023-11-08T16:02:48.348Z,80.06
2023-11-08T16:05:35.052Z,80.28
2023-11-08T16:08:20.543Z,80.31
2023-11-08T16:11:06.272Z,80.12
2023-11-08T16:13:53.683Z,80.52
2023-11-08T16:16:44.083Z,80.42
2023-11-08T16:19:29.323Z,80.03
2023-11-08T16:22:14.974Z,79.69
2023-11-08T16:25:00.804Z,80.14
2023-11-08T16:27:46.695Z,79.96
2023-11-08T16:30:59.936Z,79.65
2023-11-08T16:33:39.162Z,79.78
2023-11-08T16:36:26.519Z,79.68
2023-11-08T16:39:15.293Z,79.48
2023-11-08T16:42:01.772Z,79.52
2023-11-08T16:44:47.297Z,79.82
2023-11-08T16:47:34.078Z,79.74
2023-11-08T16:50:19.538Z,80.05
2023-11-08T16:53:08.855Z,79.58
2023-11-08T16:55:54.185Z,79.53
2023-11-08T16:58:42.590Z,79.64
2023-11-08T17:01:30.768Z,80.08
2023-11-08T17:04:15.881Z,80.02
2023-11-08T17:07:01.195Z,80.09
2023-11-08T17:09:46.201Z,79.54
2023-11-08T17:12:31.559Z,80.15
2023-11-08T17:15:17.702Z,80.13
2023-11-08T17:18:03.205Z,80.28
2023-11-08T17:20:51.419Z,80.31
2023-11-08T17:23:36.625Z,80.20
2023-11-08T17:26:22.003Z,80.67
2023-11-08T17:29:07.322Z,80.52
2023-11-08T17:31:52.836Z,80.52
2023-11-08T17:34:38.474Z,80.23
2023-11-08T17:37:23.642Z,80.24
2023-11-08T17:40:09.771Z,80.07
2023-11-08T17:42:55.344Z,79.97
2023-11-08T17:45:42.701Z,80.08
2023-11-08T17:48:28.002Z,79.80
2023-11-08T17:51:13.414Z,79.74
2023-11-08T17:53:58.879Z,79.80
2023-11-08T17:56:47.437Z,79.50
2023-11-08T17:59:33.642Z,79.48
2023-11-08T18:02:18.688Z,79.45
2023-11-08T18:05:04.486Z,79.37
2023-11-08T18:07:49.891Z,79.83
2023-11-08T18:10:35.354Z,79.27
2023-11-08T18:13:20.515Z,79.40
2023-11-08T18:16:06.157Z,79.83
2023-11-08T18:18:51.478Z,79.71
2023-11-08T18:21:37.687Z,79.97
2023-11-08T18:24:23.855Z,80.00
2023-11-08T18:27:09.446Z,79.88
2023-11-08T18:29:55.403Z,80.31
2023-11-08T18:32:40.830Z,80.75
2023-11-08T18:35:26.529Z,80.64
2023-11-08T18:38:11.752Z,80.85
2023-11-08T18:40:56.909Z,80.96
2023-11-08T18:43:47.491Z,80.94
2023-11-08T18:46:33.758Z,81.02
2023-11-08T18:49:19.277Z,81.75
2023-11-08T18:52:06.104Z,81.61
2023-11-08T18:54:52.607Z,82.14
2023-11-08T18:57:38.223Z,82.88
2023-11-08T19:00:24.558Z,82.70
2023-11-08T19:03:10.091Z,82.20
2023-11-08T19:05:55.370Z,81.96
2023-11-08T19:08:40.804Z,82.65
2023-11-08T19:11:29.996Z,82.73
2023-11-08T19:14:17.449Z,82.54
2023-11-08T19:17:03.181Z,82.06
2023-11-08T19:19:48.585Z,81.99
2023-11-08T19:22:33.879Z,81.77
2023-11-08T19:25:19.572Z,81.91
2023-11-08T19:28:04.701Z,81.56
2023-11-08T19:30:50.375Z,81.39
2023-11-08T19:33:35.962Z,81.16
2023-11-08T19:36:24.571Z,81.06
2023-11-08T19:39:09.903Z,80.84
2023-11-08T19:41:55.871Z,80.69
2023-11-08T19:44:42.046Z,80.93
2023-11-08T19:47:28.002Z,81.13
2023-11-08T19:50:13.545Z,81.20
2023-11-08T19:52:59.669Z,80.97
2023-11-08T19:55:45.487Z,81.63
2023-11-08T19:58:31.034Z,81.51
2023-11-08T20:01:16.925Z,81.08
2023-11-08T20:04:02.719Z,81.43
2023-11-08T20:06:50.351Z,81.37
2023-11-08T20:09:36.236Z,81.12
2023-11-08T20:12:22.026Z,81.44
2023-11-08T20:15:08.525Z,81.59
2023-11-08T20:17:54.267Z,81.45
2023-11-08T20:20:39.799Z,81.67
2023-11-08T20:23:27.444Z,81.32
2023-11-08T20:26:12.964Z,81.18
2023-11-08T20:28:58.342Z,81.74
2023-11-08T20:31:46.055Z,81.65
2023-11-08T20:34:32.411Z,82.17
2023-11-08T20:37:17.993Z,82.23
2023-11-08T20:40:04.487Z,82.15
2023-11-08T20:42:50.449Z,82.13
2023-11-08T20:45:35.862Z,82.11
2023-11-08T20:48:20.993Z,82.43
2023-11-08T20:51:06.625Z,82.39
2023-11-08T20:53:51.751Z,82.34
2023-11-08T20:56:37.250Z,82.76
2023-11-08T20:59:23.073Z,82.85
2023-11-08T21:02:08.551Z,82.66
2023-11-08T21:04:53.869Z,82.85
2023-11-08T21:07:39.295Z,83.24
2023-11-08T21:10:24.819Z,83.34
2023-11-08T21:13:10.156Z,83.11
2023-11-08T21:15:55.671Z,82.95
2023-11-08T21:18:41.665Z,83.39
2023-11-08T21:21:27.161Z,83.22
2023-11-08T21:24:13.008Z,82.70
2023-11-08T21:26:58.320Z,83.48
2023-11-08T21:29:43.735Z,83.63
2023-11-08T21:32:29.071Z,83.12
2023-11-08T21:35:14.515Z,83.47
2023-11-08T21:38:00.205Z,84.50
2023-11-08T21:40:45.225Z,84.17
2023-11-08T21:43:30.601Z,84.36
2023-11-08T21:46:15.916Z,84.26
2023-11-08T21:49:01.395Z,84.41
2023-11-08T21:51:47.034Z,84.30
2023-11-08T21:54:32.374Z,84.03
2023-11-08T21:57:18.935Z,84.35
2023-11-08T22:00:07.523Z,84.67
2023-11-08T22:02:52.938Z,84.89
2023-11-08T22:05:40.017Z,84.56
2023-11-08T22:08:25.132Z,84.51
2023-11-08T22:11:10.569Z,84.67
2023-11-08T22:13:56.164Z,84.43
2023-11-08T22:16:41.297Z,84.15
2023-11-08T22:19:26.697Z,84.12
2023-11-08T22:22:12.001Z,83.80
2023-11-08T22:24:58.703Z,83.80
2023-11-08T22:27:43.728Z,83.79
2023-11-08T22:30:29.214Z,83.39
2023-11-08T22:33:14.540Z,83.57
2023-11-08T22:35:59.945Z,82.89
2023-11-08T22:38:45.272Z,82.89
2023-11-08T22:41:30.660Z,82.81
2023-11-08T22:44:16.208Z,82.51
2023-11-08T22:47:01.513Z,82.48
2023-11-08T22:49:46.939Z,82.48
2023-11-08T22:52:32.258Z,82.31
2023-11-08T22:55:17.705Z,82.24
2023-11-08T22:58:03.380Z,82.19
2023-11-08T23:00:50.672Z,82.11
2023-11-08T23:03:35.743Z,82.08
2023-11-08T23:06:23.827Z,82.52
2023-11-08T23:09:09.452Z,82.13
2023-11-08T23:11:56.016Z,81.97
2023-11-08T23:14:41.949Z,81.81
2023-11-08T23:17:27.009Z,81.62
2023-11-08T23:20:15.938Z,81.32
2023-11-08T23:23:01.335Z,81.16
2023-11-08T23:25:46.681Z,81.12
2023-11-08T23:28:32.480Z,81.03
2023-11-08T23:31:21.001Z,80.85
2023-11-08T23:34:06.941Z,80.77
2023-11-08T23:36:52.487Z,81.06
2023-11-08T23:39:37.853Z,81.06
2023-11-08T23:42:23.147Z,80.99
2023-11-08T23:45:08.832Z,81.39
2023-11-08T23:47:53.932Z,81.37
2023-11-08T23:50:39.500Z,82.36
2023-11-08T23:53:25.258Z,82.23
2023-11-08T23:56:10.613Z,82.31
2023-11-08T23:58:56.045Z,81.87
